Calmar/Wizard Lake Airport

CWL3 · Alberta, Canada

METAR historie CWL3 · Calmar/Wizard Lake Airport

Hieronder zie je METAR's van de afgelopen dagen. Kies een jaar om door oudere METAR's te bladeren, vanaf het jaar 2007.

2 maart 2024

Tijd Code Weer Temp. Zicht Plafond Wind METAR/SPECI
23:00
V
-16 °C 8 mi 5.900 ft 060° 060° 8 kt METAR CYEG 030600Z 06008KT 8SM -SN DRSN FEW030 OVC059 M16/M19 A2982 RMK SC1SC8 SC TR SLP160
22:26
V
-16 °C 8 mi 5.800 ft 070° 070° 7 kt METAR CYEG 030526Z 07007KT 8SM -SN DRSN OVC058 M16/M19 A2983 RMK SC8 SLP163
22:00
V
-16 °C 6 mi 5.700 ft 060° 060° 9 kt METAR CYEG 030500Z 06009KT 6SM -SN DRSN FEW047 OVC057 M16/M19 A2983 RMK SC2SC6 SLP163
21:00
V
-16 °C 5 mi 5.900 ft 060° 060° 10 kt METAR CYEG 030400Z 06010KT 5SM -SN DRSN OVC059 M16/M19 A2983 RMK SC8 SLP166
20:23
I
-16 °C 3 mi 1.500 ft 060° 060° 11 kt METAR CYEG 030323Z 06011KT 3SM -SN DRSN OVC015 M16/M19 A2984 RMK SC8 SLP168
20:00
I
-17 °C 2 mi 1.000 ft 070° 070° 10 kt METAR CYEG 030300Z 07010KT 2SM -SN DRSN OVC010 M17/M19 A2984 RMK SN5SC3 /S02/ SLP169
19:50
I
-17 °C 1½ mi 1.000 ft 050° 050° 12 - 20 kt METAR CYEG 030250Z 05012G20KT 1 1/2SM -SN DRSN OVC010 M17/M19 A2983 RMK SN5SC3 SLP167
19:00
I
-17 °C 1½ mi 1.500 ft 040° 040° 13 kt METAR CYEG 030200Z 04013KT 1 1/2SM R12/3000FT/N R02/4000V5000FT/N -SN DRSN OVC015 M17/M19 A2984 RMK SN5SC3 SLP168
18:31
I
-17 °C 1½ mi 1.400 ft 050° 050° 14 kt METAR CYEG 030131Z 05014KT 1 1/2SM R02/5000VP6000FT/D -SN DRSN OVC014 M17/M19 A2986 RMK SN5SC3 SLP176
18:12
I
-17 °C 1½ mi 2.000 ft 050° 050° 14 kt METAR CYEG 030112Z 05014KT 1 1/2SM R02/3000VP6000FT/N -SN DRSN OVC020 M17/M19 A2987 RMK SN5SC3 SLP179
18:00
I
-17 °C 1 mi 2.000 ft 040° 040° 13 kt METAR CYEG 030100Z 04013KT 1SM R12/P6000FT/N R02/5000VP6000FT/D -SN DRSN OVC020 M17/M19 A2986 RMK SN6SC2 SLP177
17:42
I
-17 °C 1 mi 2.000 ft 040° 040° 13 kt METAR CYEG 030042Z 04013KT 1SM R12/5000VP6000FT/U R02/5000VP6000FT/U -SN DRSN OVC020 M17/M19 A2985 RMK SN6SC2 SLP174
17:00
I
-16 °C 1½ mi 1.900 ft 030° 030° 12 kt METAR CYEG 030000Z 03012KT 1 1/2SM R12/5500VP6000FT/D R02/4000V5000FT/D -SN DRSN OVC019 M16/M18 A2985 RMK SN5SC3 SLP171
16:40
I
-16 °C 2¼ mi 2.100 ft 040° 040° 14 kt METAR CYEG 022340Z 04014KT 2 1/4SM -SN DRSN OVC021 M16/M19 A2985 RMK SN4SC4 SLP172
16:22
M
-16 °C 3 mi 2.600 ft 040° 040° 14 kt METAR CYEG 022322Z 04014KT 3SM R02/5000VP6000FT/N -SN DRSN OVC026 M16/M19 A2985 RMK SN3SC5 SLP172
16:00
I
-15 °C 1½ mi 2.000 ft 040° 040° 12 kt METAR CYEG 022300Z 04012KT 1 1/2SM R12/5000VP6000FT/N R02/4000V5500FT/N -SN DRSN OVC020 M15/M18 A2985 RMK SN5SC3 SLP173
15:51
I
-15 °C 1½ mi 2.300 ft 050° 050° 12 kt METAR CYEG 022251Z 05012KT 1 1/2SM R12/4500V5000FT/U R02/4500V5000FT/N -SN DRSN OVC023 M15/M18 A2985 RMK SN5SC3 SLP173
15:32
I
-15 °C 1 mi 1.500 ft 050° 050° 13 kt METAR CYEG 022232Z 05013KT 1SM R12/4500VP6000FT/D R02/4500VP6000FT/D -SN DRSN OVC015 M15/M18 A2985 RMK SN6SC2 SLP171
15:26
I
-15 °C 2 mi 2.000 ft 050° 050° 12 kt METAR CYEG 022226Z 05012KT 2SM -SN DRSN OVC020 M15/M18 A2985 RMK SN4SC4 SLP170
15:20
I
-15 °C 3 mi 2.400 ft 070° 070° 13 kt METAR CYEG 022220Z 07013KT 3SM -SN DRSN BKN024 OVC047 M15/M19 A2985 RMK SN2SC4SC2 SLP170
15:00
V
-15 °C 5 mi 4.800 ft 070° 070° 13 kt METAR CYEG 022200Z 07013KT 5SM -SN DRSN OVC048 M15/M19 A2985 RMK SC8 SLP171
15:03
M
-15 °C 4 mi 4.700 ft 070° 070° 13 kt METAR CYEG 022203Z 07013KT 4SM -SN DRSN FEW018 OVC047 M15/M19 A2985 RMK SC2SC6 SLP171
14:00
V
-14 °C 6 mi 4.800 ft 060° 060° 13 kt METAR CYEG 022100Z 06013KT 6SM -SN DRSN FEW018 OVC048 M14/M18 A2984 RMK SC1SC7 SLP169
13:37
V
-14 °C 6 mi 4.800 ft 060° 060° 14 kt METAR CYEG 022037Z 06014KT 6SM -SN DRSN FEW018 OVC048 M14/M18 A2984 RMK SC2SC6 SLP166
13:11
V
-14 °C 8 mi 6.400 ft 060° 060° 12 kt METAR CYEG 022011Z 06012KT 8SM -SN DRSN FEW024 OVC064 M14/M18 A2985 RMK SC2SC6 SLP172
13:00
V
-14 °C 5 mi 6.400 ft 060° 060° 12 kt METAR CYEG 022000Z 06012KT 5SM -SN DRSN SCT024 OVC064 M14/M18 A2985 RMK SC4SC4 SLP172
12:31
M
-14 °C 4 mi 2.800 ft 050° 050° 13 kt METAR CYEG 021931Z 05013KT 4SM -SN DRSN OVC028 M14/M18 A2984 RMK SC8 SLP169
12:00
V
-14 °C 6 mi 4.000 ft 050° 050° 12 kt METAR CYEG 021900Z 05012KT 6SM -SN SCT020 OVC040 M14/M18 A2986 RMK SC3SC5 SLP174
11:38
V
-14 °C 6 mi 3.500 ft 060° 060° 11 kt METAR CYEG 021838Z 06011KT 6SM -SN OVC035 M14/M18 A2987 RMK SC8 SLP176
11:00
V
-15 °C 5 mi 4.400 ft 070° 070° 9 kt METAR CYEG 021800Z 07009KT 5SM -SN OVC044 M15/M18 A2987 RMK SC8 SLP179
10:31
V
-15 °C 6 mi 4.400 ft 070° 070° 12 kt METAR CYEG 021731Z 07012KT 6SM -SN BKN044 BKN082 M15/M19 A2987 RMK SC6AC1 SLP179
10:00
V
-15 °C 5 mi 3.700 ft 070° 070° 10 kt METAR CYEG 021700Z 07010KT 5SM -SN BKN037 BKN069 M15/M19 A2989 RMK SC5AC2 SLP184
09:00
M
-16 °C 4 mi 3.000 ft 070° 070° 9 kt METAR CYEG 021600Z 07009KT 4SM -SN BKN030 M16/M19 A2988 RMK SC7 SLP182
08:43
M
-16 °C 4 mi 3.300 ft 060° 060° 8 kt METAR CYEG 021543Z 06008KT 4SM -SN BKN033 M16/M19 A2988 RMK SC7 SLP181
08:19
V
-16 °C 6 mi 4.000 ft 060° 060° 9 kt METAR CYEG 021519Z 06009KT 6SM -SN OVC040 M16/M19 A2988 RMK SC8 SLP182
08:00
M
-16 °C 4 mi 3.400 ft 070° 070° 12 kt METAR CYEG 021500Z 07012KT 4SM -SN OVC034 M16/M19 A2987 RMK SC8 SLP180
07:49
M
-16 °C 4 mi 3.000 ft 070° 070° 9 kt METAR CYEG 021449Z 07009KT 4SM -SN OVC030 M16/M19 A2988 RMK SC8 SLP181
07:36
I
-16 °C 3 mi 2.600 ft 060° 060° 8 kt METAR CYEG 021436Z 06008KT 3SM -SN OVC026 M16/M19 A2987 RMK SN3SC5 SLP181
07:15
I
-16 °C 2 mi 2.100 ft 060° 060° 8 kt METAR CYEG 021415Z 06008KT 2SM -SN OVC021 M16/M20 A2987 RMK SN2SC6 SLP181
07:00
I
-16 °C 3 mi 2.100 ft 060° 060° 8 kt METAR CYEG 021400Z 06008KT 3SM -SN OVC021 M16/M20 A2987 RMK SN3SC5 SLP179
06:44
M
-16 °C 5 mi 3.000 ft 060° 060° 8 kt METAR CYEG 021344Z 06008KT 5SM -SN SCT016 OVC030 M16/M21 A2987 RMK SC3SC5 SLP181
06:00
V
-16 °C 20 mi 3.100 ft 050° 050° 8 kt METAR CYEG 021300Z 05008KT 20SM -SN OVC031 M16/M21 A2987 RMK SC8 SLP179
05:00
V
-16 °C 20 mi 3.700 ft 070° 070° 6 kt METAR CYEG 021200Z 07006KT 20SM -SN OVC037 M16/M22 A2985 RMK SC8 SLP171
04:00
V
-16 °C 20 mi 3.300 ft 080° 080° 7 kt METAR CYEG 021100Z 08007KT 20SM -SN OVC033 M16/M22 A2984 RMK SC8 SLP169
03:00
V
-16 °C 20 mi 3.200 ft 090° 090° 7 kt METAR CYEG 021000Z 09007KT 20SM -SN BKN032 OVC040 M16/M22 A2984 RMK SC6SC2 SLP170
02:00
V
-16 °C 20 mi 3.900 ft 080° 080° 7 kt METAR CYEG 020900Z 08007KT 20SM -SN OVC039 M16/M21 A2984 RMK SC8 SLP170
01:00
V
-16 °C 20 mi 4.000 ft 070° 070° 8 kt METAR CYEG 020800Z 07008KT 20SM -SN OVC040 M16/M21 A2986 RMK SC8 SLP175
00:00
V
-16 °C 20 mi 4.200 ft 080° 080° 8 kt METAR CYEG 020700Z 08008KT 20SM -SN OVC042 M16/M21 A2984 RMK SC8 SLP170

1 maart 2024

Tijd Code Weer Temp. Zicht Plafond Wind METAR/SPECI
23:39
V
-16 °C 20 mi 4.500 ft 110° 110° 6 kt METAR CYEG 020639Z 11006KT 20SM -SN OVC045 M16/M21 A2985 RMK SC8 SLP174
23:00
V
-16 °C 20 mi 4.200 ft 100° 100° 7 kt METAR CYEG 020600Z 10007KT 20SM OVC042 M16/M22 A2985 RMK SC8 VIRGA PRESRR SLP172
22:00
V
-16 °C 20 mi 4.300 ft 050° 050° 6 kt METAR CYEG 020500Z 05006KT 20SM OVC043 M16/M21 A2983 RMK SC8 VIRGA SLP165
21:55
V
-16 °C 20 mi 4.300 ft 040° 040° 4 kt METAR CYEG 020455Z 04004KT 20SM OVC043 M16/M20 A2983 RMK SC8 VIRGA SLP165
21:00
V
-16 °C 20 mi 4.300 ft 070° 070° 7 kt METAR CYEG 020400Z 07007KT 20SM -SN OVC043 M16/M21 A2984 RMK SC8 SLP168
20:21
V
-16 °C 20 mi 4.200 ft 080° 080° 4 kt METAR CYEG 020321Z 08004KT 20SM -SN OVC042 M16/M21 A2984 RMK SC8 SLP169
20:00
V
-16 °C 20 mi 4.400 ft 090° 090° 4 kt METAR CYEG 020300Z 09004KT 20SM OVC044 M16/M21 A2983 RMK SC8 VIRGA SLP170
19:00
V
-16 °C 20 mi 4.300 ft 070° 070° 5 kt METAR CYEG 020200Z 07005KT 20SM BKN043 BKN055 M16/M21 A2982 RMK SC5SC2 SLP164
18:00
V
-17 °C 20 mi 24.000 ft 060° 060° 6 kt METAR CYEG 020100Z 06006KT 20SM FEW043 SCT170 BKN240 M17/M22 A2979 RMK SC2AC1CI3 SLP156
17:00
V
-15 °C 20 mi 24.000 ft 020° 020° 2 kt METAR CYEG 020000Z 02002KT 20SM FEW020 FEW043 BKN240 M15/M21 A2979 RMK SC1SC2CI5 SC TR SLP155
16:00
V
-15 °C 20 mi 4.300 ft 010° 010° 4 kt METAR CYEG 012300Z 01004KT 340V050 20SM FEW020 BKN043 OVC240 M15/M21 A2978 RMK SC1SC7CI1 SC TR SLP149
15:00
V
-15 °C 20 mi 4.300 ft 030° 030° 3 kt METAR CYEG 012200Z 03003KT 20SM OVC043 M15/M21 A2978 RMK SC8 SLP148
14:00
V
-16 °C 20 mi 4.300 ft 030° 030° 3 kt METAR CYEG 012100Z 03003KT 20SM BKN043 OVC240 M16/M21 A2978 RMK SC7CI1 SLP145
13:00
V
-16 °C 20 mi 4.300 ft 020° 020° 4 kt METAR CYEG 012000Z 02004KT 20SM BKN043 OVC240 M16/M21 A2978 RMK SC7CI1 VIRGA OHD SLP144
12:00
V
-16 °C 20 mi 4.300 ft 020° 020° 2 kt METAR CYEG 011900Z 02002KT 20SM OVC043 M16/M21 A2978 RMK SC8 VIRGA OHD SLP144
11:00
V
-16 °C 20 mi 4.800 ft 360° 360° 9 kt METAR CYEG 011800Z 36009KT 20SM OVC048 M16/M21 A2977 RMK SC8 SLP140
10:00
V
-16 °C 20 mi 5.200 ft 360° 360° 9 kt METAR CYEG 011700Z 36009KT 20SM OVC052 M16/M21 A2976 RMK SC8 SLP137
09:00
V
-16 °C 20 mi 5.400 ft 350° 350° 8 kt METAR CYEG 011600Z 35008KT 20SM BKN054 BKN085 M16/M21 A2975 RMK SC5AC2 SLP135
08:44
V
-17 °C 20 mi 6.000 ft 330° 330° 4 kt METAR CYEG 011544Z 33004KT 20SM BKN060 BKN085 M17/M20 A2975 RMK SC5AC2 SLP135
08:00
V
-19 °C 20 mi 5.400 ft 310° 310° 2 kt METAR CYEG 011500Z 31002KT 20SM -SN FEW020 BKN054 BKN085 M19/M22 A2974 RMK SC1SC5AC2 SC TR SLP133
07:00
V
-19 °C 20 mi 5.400 ft 270° 270° 5 kt METAR CYEG 011400Z 27005KT 20SM -SN FEW020 BKN054 BKN085 M19/M23 A2972 RMK SC1SC4AC1 SLP128
06:39
V
-19 °C 20 mi 4.700 ft 260° 260° 6 kt METAR CYEG 011339Z 26006KT 20SM -SN FEW020 BKN047 BKN085 M19/M23 A2971 RMK SC1SC4AC1 SLP123
06:00
V
-18 °C 20 mi 5.600 ft 290° 290° 5 kt METAR CYEG 011300Z 29005KT 20SM FEW020 BKN056 BKN085 M18/M22 A2969 RMK SC2SC3AC1 AC TR SLP115
05:00
M
-19 °C 20 mi 2.000 ft 290° 290° 4 kt METAR CYEG 011200Z 29004KT 20SM BKN020 BKN056 M19/M22 A2966 RMK SC5SC2 SLP106
04:00
V
-18 °C 20 mi - 290° 290° 8 kt METAR CYEG 011100Z 29008KT 20SM SCT020 M18/M22 A2963 RMK SC3 SLP095
03:00
V
-16 °C 20 mi - 310° 310° 8 kt METAR CYEG 011000Z 31008KT 20SM FEW022 M16/M21 A2959 RMK SC1 SC TR SLP080
02:37
V
-15 °C 20 mi - 320° 320° 8 kt METAR CYEG 010937Z 32008KT 20SM FEW022 M15/M20 A2959 RMK SC2 SLP078
02:00
M
-14 °C 20 mi 2.200 ft 320° 320° 10 - 16 kt METAR CYEG 010900Z 32010G16KT 20SM OVC022 M14/M18 A2958 RMK SC8 SLP074
01:00
M
-12 °C 20 mi 2.200 ft 320° 320° 11 kt METAR CYEG 010800Z 32011KT 20SM OVC022 M12/M16 A2954 RMK SC8 SLP061
00:45
M
-12 °C 20 mi 2.300 ft 320° 320° 7 kt METAR CYEG 010745Z 32007KT 20SM OVC023 M12/M15 A2954 RMK SC8 SLP058
00:04
M
-13 °C 20 mi 2.400 ft 330° 330° 5 kt METAR CYEG 010704Z 33005KT 20SM -SN OVC024 M13/M16 A2952 RMK SC8 SLP055

29 februari 2024

Tijd Code Weer Temp. Zicht Plafond Wind METAR/SPECI
23:00
M
-13 °C 20 mi 2.200 ft 330° 330° 7 kt METAR CYEG 010600Z 33007KT 20SM BKN022 OVC085 M13/M16 A2950 RMK SC6AC2 SLP050